Terminal Aerodrome Forecast
Issued by NWS Cleveland, OH

Home | Current Version | Previous Version | Text Only | Print | Product List | Glossary On
Versions: 1 2 3 4 5 6 7 8 9 10 11 12 13 14 15 16 17 18 19 20 21 22 23
314
FTUS41 KCLE 031730
TAFMFD
TAF
KMFD 031730Z 0318/0418 34006KT P6SM SCT025 OVC070
      TEMPO 0318/0320 BKN025
     FM032200 28006KT P6SM BKN100
     FM040300 21008KT P6SM BKN250
     FM041600 20010KT P6SM -SHRA OVC035=

USA.gov is the U.S. government's official web portal to all federal, state and local government web resources and services.